createdAt,value
2023-04-15T00:03:34.499Z,99297.19
2023-04-15T00:08:37.814Z,99293.13
2023-04-15T00:13:41.916Z,99290.13
2023-04-15T00:18:44.738Z,99295.97
2023-04-15T00:23:52.413Z,99285.34
2023-04-15T00:28:56.757Z,99270.94
2023-04-15T00:33:59.670Z,99280.13
2023-04-15T00:39:03.198Z,99280.84
2023-04-15T00:44:07.678Z,99277.44
2023-04-15T00:49:10.437Z,99273.81
2023-04-15T00:54:13.956Z,99268.06
2023-04-15T00:59:18.582Z,99258.75
2023-04-15T01:04:21.505Z,99255.84
2023-04-15T01:09:24.426Z,99268.88
2023-04-15T01:14:28.659Z,99262.66
2023-04-15T01:19:31.534Z,99264.94
2023-04-15T01:24:34.333Z,99260.03
2023-04-15T01:29:39.385Z,99261.44
2023-04-15T01:34:42.219Z,99242.22
2023-04-15T01:39:45.537Z,99231.91
2023-04-15T01:44:49.684Z,99228.53
2023-04-15T01:49:52.615Z,99218.28
2023-04-15T01:54:55.371Z,99218.69
2023-04-15T01:59:59.487Z,99227.06
2023-04-15T02:05:02.333Z,99221.75
2023-04-15T02:10:05.643Z,99216.13
2023-04-15T02:15:12.817Z,99215.72
2023-04-15T02:20:15.891Z,99213.78
2023-04-15T02:25:18.955Z,99209.81
2023-04-15T02:30:23.917Z,99205.19
2023-04-15T02:35:26.828Z,99199.56
2023-04-15T02:40:29.909Z,99199.56
2023-04-15T02:45:34.160Z,99202.50
2023-04-15T02:50:40.713Z,99204.78
2023-04-15T02:55:45.526Z,99207.03
2023-04-15T03:00:51.823Z,99213.69
2023-04-15T03:05:54.688Z,99211.28
2023-04-15T03:11:00.842Z,99211.84
2023-04-15T03:16:05.572Z,99211.28
2023-04-15T03:21:08.880Z,99210.03
2023-04-15T03:26:25.520Z,99199.72
2023-04-15T03:31:30.325Z,99187.31
2023-04-15T03:36:33.204Z,99192.25
2023-04-15T03:41:36.053Z,99194.94
2023-04-15T03:46:40.273Z,99203.13
2023-04-15T03:51:43.127Z,99207.03
2023-04-15T03:56:45.874Z,99194.78
2023-04-15T04:01:50.109Z,99190.41
2023-04-15T04:06:52.867Z,99194.25
2023-04-15T04:11:56.157Z,99192.66
2023-04-15T04:17:00.475Z,99195.63
2023-04-15T04:22:03.279Z,99188.72
2023-04-15T04:27:06.287Z,99194.09
2023-04-15T04:32:10.537Z,99186.59
2023-04-15T04:37:13.295Z,99198.00
2023-04-15T04:42:16.056Z,99192.78
2023-04-15T04:47:20.177Z,99200.97
2023-04-15T04:52:22.940Z,99208.31
2023-04-15T04:57:25.855Z,99201.38
2023-04-15T05:02:30.087Z,99198.84
2023-04-15T05:07:33.020Z,99189.13
2023-04-15T05:12:37.336Z,99192.06
2023-04-15T05:17:41.581Z,99192.19
2023-04-15T05:22:44.433Z,99193.88
2023-04-15T05:27:47.259Z,99194.16
2023-04-15T05:32:51.768Z,99191.34
2023-04-15T05:37:54.598Z,99194.16
2023-04-15T05:42:57.425Z,99190.75
2023-04-15T05:48:01.609Z,99189.38
2023-04-15T05:53:04.508Z,99192.03
2023-04-15T05:58:07.320Z,99191.44
2023-04-15T06:03:11.619Z,99196.09
2023-04-15T06:08:14.467Z,99189.91
2023-04-15T06:13:17.894Z,99197.09
2023-04-15T06:18:22.181Z,99196.38
2023-04-15T06:23:26.425Z,99190.03
2023-04-15T06:28:30.476Z,99191.16
2023-04-15T06:33:34.617Z,99189.34
2023-04-15T06:38:37.364Z,99192.16
2023-04-15T06:43:40.443Z,99193.16
2023-04-15T06:48:44.659Z,99206.25
2023-04-15T06:53:47.438Z,99207.94
2023-04-15T06:58:50.498Z,99210.47
2023-04-15T07:03:54.716Z,99214.69
2023-04-15T07:08:57.558Z,99211.94
2023-04-15T07:14:00.291Z,99212.25
2023-04-15T07:19:04.641Z,99214.25
2023-04-15T07:24:07.926Z,99207.34
2023-04-15T07:29:10.690Z,99215.09
2023-04-15T07:34:14.829Z,99221.72
2023-04-15T07:39:17.675Z,99221.13
2023-04-15T07:44:20.456Z,99212.25
2023-04-15T07:49:24.786Z,99215.50
2023-04-15T07:54:27.554Z,99218.03
2023-04-15T07:59:33.357Z,99221.28
2023-04-15T08:04:37.938Z,99228.63
2023-04-15T08:11:51.290Z,99223.06
2023-04-15T08:16:54.137Z,99229.97
2023-04-15T08:21:57.592Z,99228.88
2023-04-15T08:27:04.416Z,99230.69
2023-04-15T08:32:07.741Z,99243.69
2023-04-15T08:37:11.485Z,99242.50
2023-04-15T08:42:18.399Z,99248.34
2023-04-15T08:47:22.454Z,99243.25
2023-04-15T08:52:26.329Z,99256.94
2023-04-15T08:57:30.482Z,99259.09
2023-04-15T09:02:33.271Z,99253.72
2023-04-15T09:07:36.624Z,99257.78
2023-04-15T09:12:40.778Z,99254.72
2023-04-15T09:17:43.682Z,99261.06
2023-04-15T09:22:47.291Z,99268.38
2023-04-15T09:27:51.539Z,99262.47
2023-04-15T09:32:55.681Z,99273.75
2023-04-15T09:38:03.914Z,99286.91
2023-04-15T09:43:08.634Z,99275.84
2023-04-15T09:48:18.919Z,99291.50
2023-04-15T09:53:22.514Z,99285.00
2023-04-15T09:58:27.768Z,99294.19
2023-04-15T10:03:31.559Z,99293.25
2023-04-15T10:08:35.118Z,99301.34
2023-04-15T10:19:16.180Z,99302.63
2023-04-15T10:24:19.265Z,99300.72
2023-04-15T10:34:35.927Z,99309.88
2023-04-15T10:39:43.097Z,99314.78
2023-04-15T10:44:47.014Z,99310.13
2023-04-15T10:49:52.406Z,99315.78
2023-04-15T10:55:03.602Z,99314.41
2023-04-15T11:00:14.030Z,99330.06
2023-04-15T11:05:18.453Z,99331.84
2023-04-15T11:10:51.300Z,99333.31
2023-04-15T11:15:58.324Z,99346.59
2023-04-15T11:21:04.455Z,99355.38
2023-04-15T11:26:09.699Z,99354.97
2023-04-15T11:31:13.941Z,99363.69
2023-04-15T11:36:18.353Z,99356.91
2023-04-15T11:41:22.236Z,99366.44
2023-04-15T11:46:30.068Z,99376.41
2023-04-15T11:51:35.242Z,99376.41
2023-04-15T11:56:38.115Z,99383.16
2023-04-15T12:01:47.713Z,99390.84
2023-04-15T12:06:51.927Z,99399.09
2023-04-15T12:11:58.419Z,99402.19
2023-04-15T12:17:02.125Z,99405.25
2023-04-15T12:22:06.803Z,99419.00
2023-04-15T12:27:10.407Z,99423.69
2023-04-15T12:32:13.866Z,99426.97
2023-04-15T12:37:18.202Z,99434.50
2023-04-15T12:42:22.487Z,99435.34
2023-04-15T12:47:25.410Z,99444.69
2023-04-15T12:52:29.581Z,99446.13
2023-04-15T12:57:33.338Z,99451.88
2023-04-15T13:02:36.213Z,99457.25
2023-04-15T13:07:40.566Z,99454.81
2023-04-15T13:14:55.395Z,99463.38
2023-04-15T13:19:58.249Z,99467.22
2023-04-15T13:25:00.952Z,99484.19
2023-04-15T13:30:05.585Z,99484.09
2023-04-15T13:35:09.323Z,99489.72
2023-04-15T13:40:12.700Z,99494.28
2023-04-15T13:45:16.844Z,99495.44
2023-04-15T13:50:19.628Z,99503.69
2023-04-15T13:55:25.295Z,99513.00
2023-04-15T14:00:30.765Z,99520.25
2023-04-15T14:05:33.502Z,99528.22
2023-04-15T14:10:36.706Z,99538.53
2023-04-15T14:15:40.977Z,99544.50
2023-04-15T14:20:43.782Z,99552.41
2023-04-15T14:25:48.391Z,99551.56
2023-04-15T14:30:53.401Z,99560.06
2023-04-15T14:35:56.362Z,99564.72
2023-04-15T14:40:59.740Z,99588.03
2023-04-15T14:46:03.858Z,99580.97
2023-04-15T14:51:07.124Z,99594.72
2023-04-15T14:56:09.892Z,99596.25
2023-04-15T15:01:13.988Z,99609.44
2023-04-15T15:06:16.896Z,99608.59
2023-04-15T15:11:19.682Z,99612.81
2023-04-15T15:16:23.960Z,99633.81
2023-04-15T15:21:27.024Z,99624.66
2023-04-15T15:26:30.041Z,99638.78
2023-04-15T15:31:35.488Z,99641.16
2023-04-15T15:36:38.261Z,99638.34
2023-04-15T15:41:40.968Z,99647.44
2023-04-15T15:46:45.565Z,99651.72
2023-04-15T15:51:49.770Z,99661.69
2023-04-15T15:56:52.586Z,99666.69
2023-04-15T16:01:56.780Z,99673.94
2023-04-15T16:06:59.591Z,99683.19
2023-04-15T16:12:03.560Z,99689.91
2023-04-15T16:17:07.743Z,99701.22
2023-04-15T16:22:10.515Z,99700.16
2023-04-15T16:27:16.055Z,99698.94
2023-04-15T16:32:20.266Z,99711.38
2023-04-15T16:37:23.253Z,99709.56
2023-04-15T16:42:26.033Z,99716.78
2023-04-15T16:47:30.255Z,99723.84
2023-04-15T16:52:33.024Z,99726.38
2023-04-15T16:58:00.593Z,99729.22
2023-04-15T17:03:00.239Z,99732.75
2023-04-15T17:08:03.141Z,99738.97
2023-04-15T17:13:05.972Z,99748.59
2023-04-15T17:18:10.967Z,99748.72
2023-04-15T17:23:13.870Z,99761.63
2023-04-15T17:28:18.015Z,99763.47
2023-04-15T17:33:54.049Z,99775.75
2023-04-15T17:38:45.466Z,99784.13
2023-04-15T17:43:48.271Z,99782.84
2023-04-15T17:48:52.385Z,99790.19
2023-04-15T17:53:55.210Z,99804.34
2023-04-15T17:58:58.757Z,99811.69
2023-04-15T18:04:03.360Z,99821.75
2023-04-15T18:09:06.659Z,99822.00
2023-04-15T18:14:09.931Z,99838.03
2023-04-15T18:19:15.571Z,99844.13
2023-04-15T18:24:18.423Z,99854.16
2023-04-15T18:29:21.156Z,99859.53
2023-04-15T18:34:25.336Z,99863.50
2023-04-15T18:39:28.203Z,99869.00
2023-04-15T18:44:31.184Z,99874.25
2023-04-15T18:49:35.402Z,99876.41
2023-04-15T18:54:38.158Z,99882.47
2023-04-15T18:59:41.016Z,99890.13
2023-04-15T19:04:45.234Z,99896.91
2023-04-15T19:09:48.030Z,99903.78
2023-04-15T19:14:50.843Z,99903.47
2023-04-15T19:19:55.025Z,99915.03
2023-04-15T19:24:57.755Z,99913.75
2023-04-15T19:30:00.539Z,99928.19
2023-04-15T19:35:04.862Z,99929.75
2023-04-15T19:40:09.465Z,99932.25
2023-04-15T19:45:12.512Z,99942.16
2023-04-15T19:50:16.939Z,99942.44
2023-04-15T19:55:19.901Z,99939.63
2023-04-15T20:00:22.924Z,99941.88
2023-04-15T20:05:27.114Z,99941.59
2023-04-15T20:10:31.076Z,99948.09
2023-04-15T20:15:33.944Z,99950.19
2023-04-15T20:20:40.010Z,99954.16
2023-04-15T20:25:43.044Z,99965.75
2023-04-15T20:30:45.849Z,99967.31
2023-04-15T20:35:50.253Z,99968.91
2023-04-15T20:40:52.988Z,99968.16
2023-04-15T20:45:57.539Z,99976.22
2023-04-15T20:51:01.831Z,99976.81
2023-04-15T20:56:05.031Z,99984.75
2023-04-15T21:01:07.949Z,99982.91
2023-04-15T21:06:12.301Z,99988.28
2023-04-15T21:11:28.442Z,99984.47
2023-04-15T21:16:37.867Z,99992.41
2023-04-15T21:21:42.040Z,100003.75
2023-04-15T21:26:45.019Z,100007.69
2023-04-15T21:31:47.968Z,100014.91
2023-04-15T21:36:52.293Z,100018.28
2023-04-15T21:41:55.081Z,100021.88
2023-04-15T21:46:57.926Z,100025.13
2023-04-15T21:52:02.073Z,100035.88
2023-04-15T21:57:05.068Z,100038.56
2023-04-15T22:02:07.933Z,100034.75
2023-04-15T22:07:12.265Z,100043.66
2023-04-15T22:12:15.003Z,100053.44
2023-04-15T22:17:17.862Z,100057.09
2023-04-15T22:22:21.965Z,100058.59
2023-04-15T22:27:44.224Z,100064.97
2023-04-15T22:32:47.177Z,100068.50
2023-04-15T22:37:51.421Z,100086.34
2023-04-15T22:42:54.242Z,100084.63
2023-04-15T22:47:57.066Z,100088.75
2023-04-15T22:53:01.273Z,100092.28
2023-04-15T22:58:04.113Z,100095.13
2023-04-15T23:03:07.114Z,100093.13
2023-04-15T23:08:11.549Z,100084.22
2023-04-15T23:13:14.317Z,100092.28
2023-04-15T23:18:17.186Z,100098.38
2023-04-15T23:23:21.267Z,100087.47
2023-04-15T23:28:24.366Z,100091.28
2023-04-15T23:33:27.319Z,100096.81
2023-04-15T23:38:31.557Z,100101.19
2023-04-15T23:43:34.306Z,100109.13
2023-04-15T23:48:37.090Z,100108.28
2023-04-15T23:53:41.209Z,100104.88
2023-04-15T23:58:43.955Z,100107.00
